createdAt,value
2022-09-11T00:02:29.066Z,94.79
2022-09-11T00:12:03.146Z,94.27
2022-09-11T00:21:39.138Z,94.07
2022-09-11T00:31:14.135Z,94.14
2022-09-11T00:40:46.079Z,93.72
2022-09-11T00:50:22.241Z,93.34
2022-09-11T00:59:54.790Z,93.74
2022-09-11T01:09:29.117Z,93.69
2022-09-11T01:19:03.820Z,93.71
2022-09-11T01:28:38.518Z,93.51
2022-09-11T01:38:12.645Z,93.52
2022-09-11T01:47:48.605Z,93.44
2022-09-11T01:57:21.330Z,93.58
2022-09-11T02:06:58.473Z,93.80
2022-09-11T02:16:31.749Z,93.63
2022-09-11T02:26:06.165Z,94.09
2022-09-11T02:35:39.063Z,94.25
2022-09-11T02:45:15.031Z,94.15
2022-09-11T02:54:47.452Z,93.77
2022-09-11T03:04:21.658Z,94.04
2022-09-11T03:13:56.564Z,93.63
2022-09-11T03:23:31.133Z,93.23
2022-09-11T03:33:05.957Z,92.90
2022-09-11T03:42:40.174Z,93.00
2022-09-11T03:52:14.922Z,93.19
2022-09-11T04:01:49.292Z,93.79
2022-09-11T04:11:23.897Z,94.02
2022-09-11T04:20:58.216Z,94.40
2022-09-11T04:30:32.553Z,94.77
2022-09-11T04:40:08.469Z,94.43
2022-09-11T04:49:40.848Z,94.74
2022-09-11T04:59:16.567Z,94.45
2022-09-11T05:08:49.313Z,94.46
2022-09-11T05:18:23.379Z,94.59
2022-09-11T05:27:58.033Z,95.62
2022-09-11T05:37:35.338Z,96.25
2022-09-11T05:47:06.998Z,96.68
2022-09-11T05:56:42.967Z,96.23
2022-09-11T06:06:15.731Z,95.49
2022-09-11T06:15:50.175Z,96.73
2022-09-11T06:25:26.637Z,96.17
2022-09-11T06:26:30.624Z,95.97
2022-09-11T06:36:02.646Z,94.96
2022-09-11T06:45:37.652Z,94.91
2022-09-11T06:55:12.569Z,94.01
2022-09-11T07:04:47.225Z,90.54
2022-09-11T07:14:22.311Z,89.06
2022-09-11T07:15:26.442Z,89.28
2022-09-11T07:24:58.306Z,88.25
2022-09-11T07:34:33.116Z,87.41
2022-09-11T07:35:38.203Z,87.59
2022-09-11T07:36:40.527Z,87.26
2022-09-11T07:37:46.743Z,87.18
2022-09-11T07:38:46.327Z,86.94
2022-09-11T07:39:48.838Z,86.94
2022-09-11T07:40:52.324Z,86.94
2022-09-11T07:41:57.219Z,87.11
2022-09-11T07:43:01.104Z,87.16
2022-09-11T07:52:33.371Z,85.75
2022-09-11T07:53:37.424Z,85.96
2022-09-11T07:54:39.753Z,85.91
2022-09-11T07:55:42.165Z,85.89
2022-09-11T07:56:46.302Z,85.79
2022-09-11T07:57:48.620Z,85.42
2022-09-11T07:58:51.043Z,85.49
2022-09-11T07:59:55.143Z,85.53
2022-09-11T08:00:57.610Z,85.06
2022-09-11T08:02:01.053Z,84.79
2022-09-11T08:03:04.942Z,85.01
2022-09-11T08:04:07.246Z,85.51
2022-09-11T08:05:09.727Z,85.20
2022-09-11T08:06:13.811Z,83.75
2022-09-11T08:07:16.108Z,83.62
2022-09-11T08:08:18.589Z,83.95
2022-09-11T08:17:51.574Z,83.77
2022-09-11T08:18:54.167Z,83.77
2022-09-11T08:19:59.148Z,83.30
2022-09-11T08:21:01.442Z,83.24
2022-09-11T08:22:05.549Z,83.38
2022-09-11T08:23:07.921Z,83.79
2022-09-11T08:24:11.919Z,83.11
2022-09-11T08:25:15.917Z,82.97
2022-09-11T08:26:18.281Z,82.87
2022-09-11T08:27:20.731Z,82.31
2022-09-11T08:28:23.256Z,82.33
2022-09-11T08:29:25.682Z,82.21
2022-09-11T08:30:28.175Z,82.47
2022-09-11T08:31:30.589Z,82.68
2022-09-11T08:32:33.004Z,82.79
2022-09-11T08:33:35.502Z,82.62
2022-09-11T08:34:39.605Z,83.18
2022-09-11T08:35:41.939Z,83.24
2022-09-11T08:36:44.380Z,83.26
2022-09-11T08:37:46.889Z,83.09
2022-09-11T08:38:49.263Z,83.27
2022-09-11T08:39:53.416Z,83.41
2022-09-11T08:40:57.287Z,83.19
2022-09-11T08:42:01.264Z,83.30
2022-09-11T08:43:05.156Z,83.11
2022-09-11T08:44:07.469Z,82.70
2022-09-11T08:45:09.900Z,82.28
2022-09-11T08:46:13.943Z,82.62
2022-09-11T08:47:16.280Z,82.62
2022-09-11T08:48:18.739Z,82.64
2022-09-11T08:49:21.275Z,82.51
2022-09-11T08:50:23.695Z,82.73
2022-09-11T08:51:26.178Z,82.51
2022-09-11T08:52:28.655Z,82.53
2022-09-11T08:53:31.076Z,81.87
2022-09-11T08:54:33.560Z,82.21
2022-09-11T08:55:37.666Z,82.31
2022-09-11T08:56:40.084Z,82.13
2022-09-11T08:57:44.105Z,81.78
2022-09-11T08:58:48.048Z,81.98
2022-09-11T08:59:50.469Z,81.17
2022-09-11T09:00:54.565Z,80.88
2022-09-11T09:01:56.965Z,80.82
2022-09-11T09:03:00.969Z,80.91
2022-09-11T09:04:03.271Z,81.50
2022-09-11T09:05:05.760Z,82.00
2022-09-11T09:06:08.267Z,80.87
2022-09-11T09:07:10.688Z,81.63
2022-09-11T09:08:13.176Z,82.17
2022-09-11T09:09:17.256Z,80.73
2022-09-11T09:10:19.605Z,80.76
2022-09-11T09:11:23.610Z,81.09
2022-09-11T09:12:27.568Z,80.35
2022-09-11T09:13:29.930Z,80.74
2022-09-11T09:14:32.363Z,79.83
2022-09-11T09:15:34.819Z,80.20
2022-09-11T09:16:38.865Z,79.28
2022-09-11T09:17:41.202Z,80.04
2022-09-11T09:18:43.653Z,80.24
2022-09-11T09:19:46.099Z,78.73
2022-09-11T09:20:48.598Z,78.18
2022-09-11T09:21:51.058Z,78.31
2022-09-11T09:22:53.515Z,78.57
2022-09-11T09:23:57.648Z,78.28
2022-09-11T09:25:01.013Z,77.60
2022-09-11T09:26:03.338Z,77.73
2022-09-11T09:27:05.792Z,78.18
2022-09-11T09:28:08.319Z,77.32
2022-09-11T09:29:12.399Z,77.46
2022-09-11T09:30:14.723Z,76.34
2022-09-11T09:31:17.228Z,77.06
2022-09-11T09:32:19.683Z,76.94
2022-09-11T09:33:22.195Z,77.53
2022-09-11T09:34:26.271Z,77.34
2022-09-11T09:35:28.528Z,77.51
2022-09-11T09:36:32.625Z,77.62
2022-09-11T09:37:34.943Z,77.31
2022-09-11T09:38:37.391Z,77.99
2022-09-11T09:39:39.887Z,76.94
2022-09-11T09:40:43.920Z,76.02
2022-09-11T09:41:47.872Z,76.03
2022-09-11T09:42:51.830Z,76.53
2022-09-11T09:43:55.981Z,76.43
2022-09-11T09:44:58.374Z,75.20
2022-09-11T09:46:00.889Z,76.00
2022-09-11T09:47:03.305Z,76.81
2022-09-11T09:48:05.762Z,75.17
2022-09-11T09:49:10.043Z,75.47
2022-09-11T09:50:12.377Z,73.59
2022-09-11T09:51:14.982Z,73.73
2022-09-11T09:52:17.362Z,74.20
2022-09-11T09:53:19.770Z,74.29
2022-09-11T09:54:22.252Z,74.30
2022-09-11T09:55:26.304Z,74.23
2022-09-11T09:56:30.314Z,74.67
2022-09-11T09:57:32.679Z,75.46
2022-09-11T09:58:35.132Z,75.32
2022-09-11T09:59:37.626Z,75.13
2022-09-11T10:00:40.131Z,75.13
2022-09-11T10:01:42.585Z,75.81
2022-09-11T10:02:44.960Z,76.87
2022-09-11T10:03:47.457Z,76.96
2022-09-11T10:04:49.899Z,73.96
2022-09-11T10:05:52.357Z,74.80
2022-09-11T10:06:54.819Z,73.11
2022-09-11T10:07:57.335Z,73.22
2022-09-11T10:09:03.490Z,73.17
2022-09-11T10:10:05.270Z,74.28
2022-09-11T10:11:07.715Z,73.66
2022-09-11T10:12:10.177Z,70.75
2022-09-11T10:13:21.492Z,70.57
2022-09-11T10:14:29.073Z,71.17
2022-09-11T10:15:19.051Z,71.79
2022-09-11T10:16:23.140Z,73.66
2022-09-11T10:17:25.526Z,71.08
2022-09-11T10:18:29.509Z,71.31
2022-09-11T10:19:31.856Z,71.50
2022-09-11T10:20:34.360Z,69.88
2022-09-11T10:21:36.782Z,69.95
2022-09-11T10:22:39.279Z,70.16
2022-09-11T10:23:41.709Z,71.43
2022-09-11T10:24:45.809Z,70.59
2022-09-11T10:25:49.866Z,69.97
2022-09-11T10:26:53.770Z,71.46
2022-09-11T10:27:57.773Z,71.48
2022-09-11T10:29:00.193Z,72.71
2022-09-11T10:30:04.191Z,70.59
2022-09-11T10:31:08.226Z,69.63
2022-09-11T10:32:10.538Z,69.67
2022-09-11T10:33:14.599Z,69.37
2022-09-11T10:34:16.967Z,69.16
2022-09-11T10:35:19.408Z,70.78
2022-09-11T10:36:21.942Z,70.77
2022-09-11T10:37:24.410Z,68.35
2022-09-11T10:38:26.841Z,68.56
2022-09-11T10:39:30.984Z,69.92
2022-09-11T10:40:33.310Z,68.56
2022-09-11T10:41:37.500Z,70.36
2022-09-11T10:42:39.694Z,70.36
2022-09-11T10:43:42.168Z,69.35
2022-09-11T10:44:44.583Z,68.58
2022-09-11T10:45:47.101Z,68.49
2022-09-11T10:46:49.535Z,68.37
2022-09-11T10:47:53.579Z,67.25
2022-09-11T10:48:55.974Z,66.59
2022-09-11T10:49:58.423Z,66.48
2022-09-11T10:51:00.930Z,67.25
2022-09-11T10:52:03.419Z,67.99
2022-09-11T10:53:05.872Z,69.19
2022-09-11T10:54:08.412Z,68.51
2022-09-11T10:55:10.869Z,69.99
2022-09-11T10:56:14.975Z,70.32
2022-09-11T10:57:17.354Z,68.14
2022-09-11T10:58:21.473Z,68.05
2022-09-11T10:59:28.919Z,68.43
2022-09-11T11:00:31.051Z,67.01
2022-09-11T11:01:33.472Z,68.28
2022-09-11T11:02:35.914Z,67.96
2022-09-11T11:03:38.420Z,67.80
2022-09-11T11:04:40.807Z,68.87
2022-09-11T11:05:44.867Z,67.13
2022-09-11T11:06:48.784Z,67.53
2022-09-11T11:07:51.203Z,66.78
2022-09-11T11:08:53.726Z,66.67
2022-09-11T11:09:57.875Z,68.70
2022-09-11T11:11:00.212Z,69.27
2022-09-11T11:12:02.660Z,68.83
2022-09-11T11:13:05.124Z,67.09
2022-09-11T11:14:09.243Z,65.57
2022-09-11T11:15:11.846Z,65.38
2022-09-11T11:16:14.331Z,67.17
2022-09-11T11:17:16.792Z,66.75
2022-09-11T11:18:20.925Z,65.12
2022-09-11T11:19:23.288Z,66.34
2022-09-11T11:20:25.745Z,65.01
2022-09-11T11:21:28.319Z,66.23
2022-09-11T11:22:32.360Z,63.06
2022-09-11T11:23:40.338Z,64.54
2022-09-11T11:24:42.499Z,63.06
2022-09-11T11:25:44.968Z,63.08
2022-09-11T11:26:47.426Z,63.07
2022-09-11T11:27:49.907Z,62.56
2022-09-11T11:28:53.980Z,60.78
2022-09-11T11:29:56.400Z,62.55
2022-09-11T11:31:00.585Z,62.51
2022-09-11T11:32:02.824Z,62.84
2022-09-11T11:33:05.317Z,61.58
2022-09-11T11:34:07.810Z,62.31
2022-09-11T11:35:11.912Z,64.99
2022-09-11T11:36:14.313Z,62.90
2022-09-11T11:37:18.396Z,61.15
2022-09-11T11:38:22.303Z,61.54
2022-09-11T11:39:24.606Z,62.44
2022-09-11T11:40:27.069Z,62.38
2022-09-11T11:41:31.185Z,63.66
2022-09-11T11:42:33.599Z,64.39
2022-09-11T11:43:37.636Z,65.11
2022-09-11T11:44:40.157Z,62.91
2022-09-11T11:45:42.687Z,63.85
2022-09-11T11:46:46.747Z,63.50
2022-09-11T11:47:49.110Z,63.90
2022-09-11T11:48:53.192Z,63.91
2022-09-11T11:49:57.084Z,64.48
2022-09-11T11:50:59.468Z,66.12
2022-09-11T11:52:03.594Z,65.30
2022-09-11T11:53:05.954Z,65.09
2022-09-11T11:54:10.006Z,64.90
2022-09-11T11:55:13.984Z,63.17
2022-09-11T11:56:16.377Z,62.61
2022-09-11T11:57:19.953Z,62.56
2022-09-11T11:58:22.339Z,62.56
2022-09-11T11:59:24.855Z,61.15
2022-09-11T12:00:27.315Z,62.13
2022-09-11T12:01:31.459Z,63.54
2022-09-11T12:02:33.786Z,65.11
2022-09-11T12:03:37.869Z,63.79
2022-09-11T12:04:40.175Z,62.19
2022-09-11T12:05:42.624Z,62.32
2022-09-11T12:06:45.116Z,63.42
2022-09-11T12:07:49.224Z,62.00
2022-09-11T12:08:51.584Z,60.51
2022-09-11T12:09:54.081Z,60.41
2022-09-11T12:10:56.581Z,58.82
2022-09-11T12:11:59.050Z,59.77
2022-09-11T12:13:01.547Z,61.35
2022-09-11T12:14:04.065Z,62.86
2022-09-11T12:15:08.205Z,60.84
2022-09-11T12:16:12.134Z,61.38
2022-09-11T12:17:14.451Z,61.17
2022-09-11T12:18:19.493Z,58.55
2022-09-11T12:19:23.409Z,58.67
2022-09-11T12:20:26.787Z,57.55
2022-09-11T12:21:30.767Z,59.01
2022-09-11T12:22:34.777Z,59.34
2022-09-11T12:23:37.153Z,58.17
2022-09-11T12:24:39.677Z,57.30
2022-09-11T12:25:42.060Z,58.57
2022-09-11T12:26:44.628Z,59.86
2022-09-11T12:27:46.923Z,58.69
2022-09-11T12:28:51.063Z,57.88
2022-09-11T12:29:54.379Z,56.87
2022-09-11T12:30:58.467Z,57.84
2022-09-11T12:32:00.954Z,55.02
2022-09-11T12:33:03.234Z,54.89
2022-09-11T12:34:05.699Z,56.25
2022-09-11T12:35:08.141Z,55.24
2022-09-11T12:36:10.646Z,56.78
2022-09-11T12:37:14.660Z,54.88
2022-09-11T12:38:17.026Z,55.38
2022-09-11T12:39:19.440Z,57.58
2022-09-11T12:40:21.962Z,56.73
2022-09-11T12:41:24.447Z,55.53
2022-09-11T12:42:26.901Z,55.48
2022-09-11T12:43:29.427Z,54.97
2022-09-11T12:44:33.560Z,57.91
2022-09-11T12:45:35.973Z,57.67
2022-09-11T12:46:38.295Z,59.79
2022-09-11T12:47:40.693Z,61.39
2022-09-11T12:48:43.214Z,62.29
2022-09-11T12:49:45.651Z,62.52
2022-09-11T12:50:48.070Z,63.42
2022-09-11T12:51:50.546Z,62.81
2022-09-11T12:52:53.008Z,61.80
2022-09-11T12:53:57.016Z,61.15
2022-09-11T12:54:59.374Z,61.69
2022-09-11T12:56:02.772Z,59.74
2022-09-11T12:57:05.205Z,61.48
2022-09-11T12:58:07.639Z,60.61
2022-09-11T12:59:11.618Z,60.09
2022-09-11T13:08:42.086Z,59.42
2022-09-11T13:09:44.395Z,60.53
2022-09-11T13:10:46.811Z,61.47
2022-09-11T13:11:49.274Z,61.28
2022-09-11T13:12:51.775Z,61.39
2022-09-11T13:13:54.234Z,62.38
2022-09-11T13:14:58.276Z,60.42
2022-09-11T13:16:00.731Z,62.20
2022-09-11T13:17:03.163Z,59.77
2022-09-11T13:18:06.407Z,61.52
2022-09-11T13:19:08.863Z,58.96
2022-09-11T13:20:11.351Z,58.60
2022-09-11T13:21:13.832Z,59.37
2022-09-11T13:22:17.843Z,58.20
2022-09-11T13:23:20.275Z,57.20
2022-09-11T13:24:24.202Z,57.86
2022-09-11T13:25:26.587Z,58.14
2022-09-11T13:26:30.624Z,59.63
2022-09-11T13:27:33.126Z,59.71
2022-09-11T13:28:35.458Z,60.21
2022-09-11T13:29:38.057Z,59.72
2022-09-11T13:30:40.345Z,60.32
2022-09-11T13:31:44.372Z,61.58
2022-09-11T13:32:46.815Z,60.67
2022-09-11T13:33:49.276Z,60.69
2022-09-11T13:34:53.396Z,58.74
2022-09-11T13:35:55.677Z,60.70
2022-09-11T13:36:58.061Z,60.06
2022-09-11T13:38:01.990Z,60.55
2022-09-11T13:39:04.215Z,61.21
2022-09-11T13:40:08.399Z,62.33
2022-09-11T13:41:10.555Z,59.38
2022-09-11T13:42:14.069Z,60.86
2022-09-11T13:43:16.557Z,62.44
2022-09-11T13:44:18.921Z,61.06
2022-09-11T13:45:21.307Z,60.17
2022-09-11T13:46:23.826Z,61.80
2022-09-11T13:47:27.237Z,60.80
2022-09-11T13:48:29.548Z,62.09
2022-09-11T13:49:31.991Z,60.37
2022-09-11T13:50:34.502Z,62.19
2022-09-11T13:51:38.558Z,63.39
2022-09-11T13:52:42.510Z,61.43
2022-09-11T13:53:44.929Z,62.03
2022-09-11T13:54:47.313Z,59.98
2022-09-11T13:55:49.733Z,62.73
2022-09-11T13:56:53.696Z,62.72
2022-09-11T13:57:56.082Z,62.19
2022-09-11T13:59:02.291Z,62.81
2022-09-11T14:00:01.040Z,60.80
2022-09-11T14:01:04.657Z,62.53
2022-09-11T14:02:06.956Z,61.02
2022-09-11T14:03:13.059Z,61.24
2022-09-11T14:04:15.310Z,61.70
2022-09-11T14:05:17.713Z,61.05
2022-09-11T14:06:21.650Z,60.65
2022-09-11T14:07:25.722Z,59.75
2022-09-11T14:08:27.990Z,59.88
2022-09-11T14:09:31.454Z,61.60
2022-09-11T14:10:35.429Z,61.90
2022-09-11T14:11:40.415Z,58.62
2022-09-11T14:12:42.658Z,60.04
2022-09-11T14:13:46.745Z,60.10
2022-09-11T14:14:49.084Z,60.45
2022-09-11T14:15:52.539Z,61.46
2022-09-11T14:16:54.940Z,62.88
2022-09-11T14:17:57.409Z,61.56
2022-09-11T14:19:01.495Z,61.59
2022-09-11T14:20:05.773Z,63.51
2022-09-11T14:21:07.952Z,61.25
2022-09-11T14:22:10.406Z,60.28
2022-09-11T14:23:12.921Z,60.28
2022-09-11T14:24:15.431Z,60.27
2022-09-11T14:25:17.840Z,61.55
2022-09-11T14:26:20.388Z,61.68
2022-09-11T14:27:23.846Z,59.90
2022-09-11T14:28:26.403Z,59.32
2022-09-11T14:29:28.855Z,61.18
2022-09-11T14:30:34.764Z,60.35
2022-09-11T14:31:33.779Z,59.76
2022-09-11T14:32:36.180Z,60.33
2022-09-11T14:33:38.667Z,58.40
2022-09-11T14:34:41.310Z,58.38
2022-09-11T14:35:43.787Z,59.12
2022-09-11T14:36:47.881Z,60.82
2022-09-11T14:37:51.949Z,60.63
2022-09-11T14:38:55.922Z,60.89
2022-09-11T14:39:58.368Z,60.92
2022-09-11T14:41:00.766Z,61.26
2022-09-11T14:42:03.286Z,60.79
2022-09-11T14:43:05.824Z,59.61
2022-09-11T14:44:08.273Z,60.12
2022-09-11T14:45:10.745Z,60.60
2022-09-11T14:46:14.711Z,61.61
2022-09-11T14:47:17.071Z,62.23
2022-09-11T14:48:19.626Z,61.88
2022-09-11T14:49:23.690Z,61.24
2022-09-11T14:50:25.965Z,59.74
2022-09-11T14:51:28.404Z,60.17
2022-09-11T14:52:30.874Z,61.30
2022-09-11T14:53:33.488Z,59.60
2022-09-11T14:54:37.543Z,59.86
2022-09-11T14:55:39.958Z,56.45
2022-09-11T14:56:42.430Z,57.95
2022-09-11T14:57:44.971Z,56.17
2022-09-11T14:58:47.469Z,55.03
2022-09-11T14:59:49.978Z,54.66
2022-09-11T15:00:52.411Z,55.17
2022-09-11T15:01:54.892Z,54.57
2022-09-11T15:02:57.441Z,55.67
2022-09-11T15:04:01.527Z,55.02
2022-09-11T15:05:03.876Z,56.35
2022-09-11T15:06:06.428Z,52.85
2022-09-11T15:07:10.555Z,53.85
2022-09-11T15:08:14.505Z,54.50
2022-09-11T15:09:18.459Z,56.26
2022-09-11T15:10:20.878Z,56.04
2022-09-11T15:11:23.341Z,52.22
2022-09-11T15:12:25.873Z,51.46
2022-09-11T15:13:28.348Z,52.44
2022-09-11T15:14:52.214Z,54.74
2022-09-11T15:15:33.324Z,56.11
2022-09-11T15:16:35.859Z,54.99
2022-09-11T15:17:38.346Z,53.79
2022-09-11T15:18:42.393Z,53.83
2022-09-11T15:19:46.352Z,53.94
2022-09-11T15:20:48.751Z,54.92
2022-09-11T15:21:51.218Z,54.35
2022-09-11T15:22:56.334Z,53.70
2022-09-11T15:23:58.696Z,54.07
2022-09-11T15:25:01.204Z,55.24
2022-09-11T15:26:03.669Z,54.60
2022-09-11T15:27:06.253Z,55.97
2022-09-11T15:28:08.761Z,56.17
2022-09-11T15:29:12.856Z,57.63
2022-09-11T15:30:15.289Z,56.85
2022-09-11T15:31:19.320Z,54.10
2022-09-11T15:32:23.341Z,55.55
2022-09-11T15:33:25.700Z,54.56
2022-09-11T15:34:28.234Z,51.94
2022-09-11T15:35:32.978Z,49.94
2022-09-11T15:36:33.309Z,51.25
2022-09-11T15:37:37.495Z,50.21
2022-09-11T15:38:39.846Z,50.83
2022-09-11T15:39:42.443Z,52.42
2022-09-11T15:40:46.510Z,48.97
2022-09-11T15:41:50.537Z,49.51
2022-09-11T15:42:52.904Z,48.04
2022-09-11T15:43:55.426Z,47.18
2022-09-11T15:44:58.029Z,48.93
2022-09-11T15:46:02.122Z,47.86
2022-09-11T15:47:04.548Z,45.63
2022-09-11T15:48:08.654Z,45.16
2022-09-11T15:49:11.102Z,47.79
2022-09-11T15:50:13.599Z,44.54
2022-09-11T15:51:16.117Z,45.49
2022-09-11T15:52:18.664Z,44.59
2022-09-11T15:53:21.202Z,44.96
2022-09-11T15:54:23.660Z,47.70
2022-09-11T15:55:26.166Z,46.47
2022-09-11T15:56:28.662Z,47.89
2022-09-11T15:57:32.982Z,47.67
2022-09-11T15:58:35.367Z,45.26
2022-09-11T15:59:39.462Z,43.64
2022-09-11T16:00:41.878Z,45.42
2022-09-11T16:01:44.465Z,44.07
2022-09-11T16:02:48.482Z,43.67
2022-09-11T16:03:52.461Z,46.73
2022-09-11T16:04:56.441Z,43.76
2022-09-11T16:06:00.425Z,46.94
2022-09-11T16:07:02.832Z,45.60
2022-09-11T16:08:05.358Z,44.88
2022-09-11T16:09:07.853Z,45.45
2022-09-11T16:10:10.364Z,46.20
2022-09-11T16:11:12.908Z,46.90
2022-09-11T16:12:17.038Z,42.76
2022-09-11T16:13:21.052Z,43.59
2022-09-11T16:14:23.374Z,41.83
2022-09-11T16:15:27.536Z,42.19
2022-09-11T16:16:31.546Z,42.00
2022-09-11T16:17:35.541Z,43.62
2022-09-11T16:18:39.550Z,43.18
2022-09-11T16:19:41.893Z,44.18
2022-09-11T16:20:46.037Z,43.62
2022-09-11T16:21:48.417Z,42.98
2022-09-11T16:22:52.581Z,44.43
2022-09-11T16:24:00.804Z,44.18
2022-09-11T16:24:59.070Z,43.16
2022-09-11T16:26:05.330Z,45.91
2022-09-11T16:27:07.590Z,42.34
2022-09-11T16:28:11.682Z,44.79
2022-09-11T16:29:15.598Z,45.10
2022-09-11T16:30:41.933Z,45.21
2022-09-11T16:31:22.028Z,43.87
2022-09-11T16:32:24.467Z,42.89
2022-09-11T16:33:27.011Z,43.22
2022-09-11T16:34:29.524Z,42.90
2022-09-11T16:35:32.086Z,45.16
2022-09-11T16:36:34.492Z,44.70
2022-09-11T16:37:38.674Z,43.12
2022-09-11T16:38:42.612Z,46.02
2022-09-11T16:39:46.614Z,46.00
2022-09-11T16:40:48.915Z,44.57
2022-09-11T16:41:51.495Z,44.96
2022-09-11T16:42:55.473Z,45.37
2022-09-11T16:43:57.858Z,44.58
2022-09-11T16:45:00.411Z,48.80
2022-09-11T16:46:02.941Z,50.88
2022-09-11T16:47:05.312Z,51.58
2022-09-11T16:48:07.754Z,50.85
2022-09-11T16:49:10.272Z,52.37
2022-09-11T16:50:12.780Z,52.82
2022-09-11T16:51:15.307Z,52.77
2022-09-11T16:52:17.767Z,50.45
2022-09-11T16:53:21.876Z,52.18
2022-09-11T16:54:24.179Z,52.91
2022-09-11T16:55:26.706Z,53.14
2022-09-11T16:56:29.127Z,53.67
2022-09-11T16:57:31.653Z,54.61
2022-09-11T16:58:34.133Z,54.85
2022-09-11T16:59:38.167Z,55.41
2022-09-11T17:00:42.202Z,55.66
2022-09-11T17:01:44.597Z,55.98
2022-09-11T17:02:51.046Z,56.21
2022-09-11T17:03:53.267Z,56.87
2022-09-11T17:04:55.778Z,57.13
2022-09-11T17:05:59.839Z,58.52
2022-09-11T17:07:02.249Z,58.58
2022-09-11T17:08:04.635Z,59.09
2022-09-11T17:09:07.123Z,59.06
2022-09-11T17:10:09.619Z,60.59
2022-09-11T17:11:12.109Z,59.71
2022-09-11T17:12:14.610Z,59.89
2022-09-11T17:13:17.045Z,60.68
2022-09-11T17:14:19.503Z,60.74
2022-09-11T17:15:23.670Z,60.29
2022-09-11T17:16:26.054Z,60.08
2022-09-11T17:25:58.284Z,61.29
2022-09-11T17:27:02.397Z,61.94
2022-09-11T17:28:04.771Z,61.41
2022-09-11T17:29:07.306Z,60.92
2022-09-11T17:30:09.831Z,61.25
2022-09-11T17:31:12.358Z,62.25
2022-09-11T17:32:31.129Z,62.07
2022-09-11T17:33:17.964Z,62.65
2022-09-11T17:34:23.052Z,62.69
2022-09-11T17:35:25.352Z,61.97
2022-09-11T17:36:29.304Z,63.54
2022-09-11T17:37:32.614Z,64.18
2022-09-11T17:38:34.950Z,63.08
2022-09-11T17:39:38.406Z,63.91
2022-09-11T17:40:40.720Z,64.13
2022-09-11T17:50:12.469Z,66.83
2022-09-11T17:59:43.821Z,68.98
2022-09-11T18:09:16.994Z,71.04
2022-09-11T18:18:48.118Z,71.93
2022-09-11T18:28:21.317Z,73.48
2022-09-11T18:37:55.484Z,74.84
2022-09-11T18:47:27.836Z,75.95
2022-09-11T18:57:03.098Z,76.91
2022-09-11T19:06:35.243Z,78.23
2022-09-11T19:16:09.576Z,80.03
2022-09-11T19:25:43.032Z,80.69
2022-09-11T19:35:18.829Z,82.22
2022-09-11T19:44:54.315Z,83.06
2022-09-11T19:54:22.588Z,85.40
2022-09-11T20:03:58.030Z,84.00
2022-09-11T20:13:30.742Z,84.53
2022-09-11T20:23:05.169Z,85.28
2022-09-11T20:24:07.691Z,85.08
2022-09-11T20:33:45.520Z,84.23
2022-09-11T20:43:16.191Z,83.71
2022-09-11T20:52:50.433Z,83.57
2022-09-11T21:02:26.216Z,83.57
2022-09-11T21:11:58.125Z,83.84
2022-09-11T21:21:32.539Z,84.42
2022-09-11T21:31:06.556Z,85.50
2022-09-11T21:40:42.612Z,86.16
2022-09-11T21:50:15.180Z,87.21
2022-09-11T21:59:49.698Z,87.43
2022-09-11T22:09:25.866Z,87.31
2022-09-11T22:18:58.630Z,86.89
2022-09-11T22:28:34.878Z,86.75
2022-09-11T22:38:08.138Z,85.97
2022-09-11T22:47:42.379Z,85.92
2022-09-11T22:57:16.471Z,86.48
2022-09-11T23:06:52.248Z,87.67
2022-09-11T23:16:25.108Z,87.15
2022-09-11T23:25:59.168Z,88.76
2022-09-11T23:35:35.270Z,89.17
2022-09-11T23:45:09.236Z,88.14
2022-09-11T23:54:41.414Z,89.53
